Time,TemperatureF,DewpointF,PressureIn,WindDirection,WindDirectionDegrees,WindSpeedMPH,WindSpeedGustMPH,Humidity,HourlyPrecipIn,Conditions,Clouds,dailyrainin,SoftwareType,DateUTC
2013-01-19 00:07:00,32.4,28.1,30.36,ESE,123,0.0,0.0,84,0.00,,,0.00,Wunderground v.1.15,2013-01-19 06:07:00,
2013-01-19 00:16:00,32.3,28.0,30.36,ESE,123,0.0,0.0,84,0.00,,,0.00,Wunderground v.1.15,2013-01-19 06:16:00,
2013-01-19 00:26:00,32.0,28.0,30.36,ESE,123,0.0,0.0,85,0.00,,,0.00,Wunderground v.1.15,2013-01-19 06:26:00,
2013-01-19 00:37:00,32.1,28.4,30.36,ESE,123,0.0,0.0,86,0.00,,,0.00,Wunderground v.1.15,2013-01-19 06:37:00,
2013-01-19 00:46:00,34.8,31.6,30.36,ESE,123,0.0,0.0,88,0.00,,,0.00,Wunderground v.1.15,2013-01-19 06:46:00,
2013-01-19 00:56:00,35.1,31.0,30.36,ESE,123,0.0,0.0,85,0.00,,,0.00,Wunderground v.1.15,2013-01-19 06:56:00,
2013-01-19 01:07:00,34.9,31.1,30.35,ESE,123,0.0,0.0,86,0.00,,,0.00,Wunderground v.1.15,2013-01-19 07:07:00,
2013-01-19 01:16:00,35.5,31.7,30.35,ESE,123,0.0,0.0,86,0.00,,,0.00,Wunderground v.1.15,2013-01-19 07:16:00,
2013-01-19 01:26:00,36.7,32.9,30.35,ESE,123,0.0,0.0,86,0.00,,,0.00,Wunderground v.1.15,2013-01-19 07:26:00,
2013-01-19 01:37:00,37.5,33.7,30.34,ESE,123,0.0,0.0,86,0.00,,,0.00,Wunderground v.1.15,2013-01-19 07:37:00,
2013-01-19 01:46:00,37.5,33.7,30.34,ESE,123,0.0,0.0,86,0.00,,,0.00,Wunderground v.1.15,2013-01-19 07:46:00,
2013-01-19 01:56:00,38.1,34.3,30.34,ESE,123,0.0,0.0,86,0.00,,,0.00,Wunderground v.1.15,2013-01-19 07:56:00,
2013-01-19 02:07:00,38.8,35.0,30.34,ESE,123,0.0,0.0,86,0.00,,,0.00,Wunderground v.1.15,2013-01-19 08:07:00,
2013-01-19 02:16:00,39.5,36.0,30.33,ESE,123,0.0,0.0,87,0.00,,,0.00,Wunderground v.1.15,2013-01-19 08:16:00,
2013-01-19 02:26:00,40.4,36.8,30.33,ESE,123,0.0,0.0,87,0.00,,,0.00,Wunderground v.1.15,2013-01-19 08:26:00,
2013-01-19 02:37:00,41.3,37.4,30.33,ESE,123,2.0,2.0,86,0.00,,,0.00,Wunderground v.1.15,2013-01-19 08:37:00,
2013-01-19 02:46:00,42.3,38.4,30.32,SSE,157,3.0,4.0,86,0.00,,,0.00,Wunderground v.1.15,2013-01-19 08:46:00,
2013-01-19 02:56:00,43.0,38.8,30.32,South,172,4.0,5.0,85,0.00,,,0.00,Wunderground v.1.15,2013-01-19 08:56:00,
2013-01-19 03:07:00,43.0,38.5,30.31,South,175,4.0,4.0,84,0.00,,,0.00,Wunderground v.1.15,2013-01-19 09:07:00,
2013-01-19 03:16:00,42.8,38.3,30.31,South,174,4.0,5.0,84,0.00,,,0.00,Wunderground v.1.15,2013-01-19 09:16:00,
2013-01-19 03:26:00,43.5,39.3,30.31,SSE,166,6.0,8.0,85,0.00,,,0.00,Wunderground v.1.15,2013-01-19 09:26:00,
2013-01-19 03:36:00,43.7,39.5,30.30,South,180,6.0,10.0,85,0.00,,,0.00,Wunderground v.1.15,2013-01-19 09:36:00,
2013-01-19 03:46:00,43.8,39.9,30.28,SSE,166,6.0,6.0,86,0.00,,,0.00,Wunderground v.1.15,2013-01-19 09:46:00,
2013-01-19 03:56:00,44.0,40.1,30.28,SE,146,7.0,11.0,86,0.00,,,0.00,Wunderground v.1.15,2013-01-19 09:56:00,
2013-01-19 04:07:00,44.0,40.1,30.28,SSE,161,7.0,7.0,86,0.00,,,0.00,Wunderground v.1.15,2013-01-19 10:07:00,
2013-01-19 04:16:00,44.1,40.5,30.27,SE,143,7.0,7.0,87,0.00,,,0.00,Wunderground v.1.15,2013-01-19 10:16:00,
2013-01-19 04:26:00,44.3,41.0,30.27,South,182,7.0,7.0,88,0.00,,,0.00,Wunderground v.1.15,2013-01-19 10:26:00,
2013-01-19 04:37:00,44.3,41.0,30.27,South,180,6.0,6.0,88,0.00,,,0.00,Wunderground v.1.15,2013-01-19 10:37:00,
2013-01-19 04:46:00,44.1,41.1,30.27,South,178,4.0,4.0,89,0.00,,,0.00,Wunderground v.1.15,2013-01-19 10:46:00,
2013-01-19 05:07:00,44.1,41.1,30.27,South,181,5.0,9.0,89,0.00,,,0.00,Wunderground v.1.15,2013-01-19 11:07:00,
2013-01-19 06:56:00,44.1,41.9,30.29,South,177,2.0,2.0,92,0.00,,,0.00,Wunderground v.1.15,2013-01-19 12:56:00,
2013-01-19 07:07:00,44.0,41.8,30.30,South,177,0.0,0.0,92,0.00,,,0.00,Wunderground v.1.15,2013-01-19 13:07:00,
2013-01-19 07:16:00,43.8,41.6,30.31,South,177,0.0,0.0,92,0.00,,,0.00,Wunderground v.1.15,2013-01-19 13:16:00,
2013-01-19 07:26:00,43.3,41.1,30.31,South,177,0.0,2.0,92,0.00,,,0.00,Wunderground v.1.15,2013-01-19 13:26:00,
2013-01-19 07:37:00,43.8,41.6,30.32,South,176,3.0,4.0,92,0.00,,,0.00,Wunderground v.1.15,2013-01-19 13:37:00,
2013-01-19 07:47:00,44.1,41.9,30.32,SSE,160,4.0,4.0,92,0.00,,,0.00,Wunderground v.1.15,2013-01-19 13:47:00,
2013-01-19 07:56:00,44.1,41.9,30.32,SSE,161,4.0,5.0,92,0.00,,,0.00,Wunderground v.1.15,2013-01-19 13:56:00,
2013-01-19 08:07:00,43.8,41.6,30.32,SSE,161,3.0,5.0,92,0.00,,,0.00,Wunderground v.1.15,2013-01-19 14:07:00,
2013-01-19 08:16:00,43.7,41.5,30.33,SSE,161,3.0,3.0,92,0.00,,,0.00,Wunderground v.1.15,2013-01-19 14:16:00,
2013-01-19 08:26:00,44.0,41.8,30.33,SSE,162,3.0,3.0,92,0.00,,,0.00,Wunderground v.1.15,2013-01-19 14:26:00,
2013-01-19 08:37:00,44.7,42.5,30.33,SSE,167,3.0,5.0,92,0.00,,,0.00,Wunderground v.1.15,2013-01-19 14:37:00,
2013-01-19 08:46:00,45.9,43.7,30.33,South,178,5.0,8.0,92,0.00,,,0.00,Wunderground v.1.15,2013-01-19 14:46:00,
2013-01-19 08:56:00,46.7,44.2,30.33,South,173,6.0,6.0,91,0.00,,,0.00,Wunderground v.1.15,2013-01-19 14:56:00,
2013-01-19 09:07:00,47.2,44.1,30.33,South,186,4.0,4.0,89,0.00,,,0.00,Wunderground v.1.15,2013-01-19 15:07:00,
2013-01-19 09:16:00,47.9,44.5,30.34,SSE,163,4.0,9.0,88,0.00,,,0.00,Wunderground v.1.15,2013-01-19 15:16:00,
2013-01-19 09:26:00,48.7,44.7,30.34,South,170,6.0,6.0,86,0.00,,,0.00,Wunderground v.1.15,2013-01-19 15:26:00,
2013-01-19 09:37:00,49.8,44.8,30.34,SSE,161,6.0,6.0,83,0.00,,,0.00,Wunderground v.1.15,2013-01-19 15:37:00,
2013-01-19 09:46:00,50.0,44.7,30.34,SSE,159,6.0,6.0,82,0.00,,,0.00,Wunderground v.1.15,2013-01-19 15:46:00,
2013-01-19 09:56:00,50.4,44.8,30.34,SSE,152,8.0,8.0,81,0.00,,,0.00,Wunderground v.1.15,2013-01-19 15:56:00,
2013-01-19 10:07:00,51.0,44.7,30.34,SSE,150,8.0,11.0,79,0.00,,,0.00,Wunderground v.1.15,2013-01-19 16:07:00,
2013-01-19 10:16:00,50.9,44.6,30.35,SSE,168,7.0,7.0,79,0.00,,,0.00,Wunderground v.1.15,2013-01-19 16:16:00,
2013-01-19 10:26:00,51.5,45.2,30.35,SSE,157,6.0,6.0,79,0.00,,,0.00,Wunderground v.1.15,2013-01-19 16:26:00,
2013-01-19 10:37:00,52.4,45.4,30.35,South,183,6.0,6.0,77,0.00,,,0.00,Wunderground v.1.15,2013-01-19 16:37:00,
2013-01-19 10:46:00,54.1,46.3,30.34,SSE,148,7.0,14.0,75,0.00,,,0.00,Wunderground v.1.15,2013-01-19 16:46:00,
2013-01-19 10:56:00,55.5,45.9,30.34,SSW,205,10.0,12.0,70,0.00,,,0.00,Wunderground v.1.15,2013-01-19 16:56:00,
2013-01-19 11:07:00,56.4,45.6,30.33,SSE,163,11.0,11.0,67,0.00,,,0.00,Wunderground v.1.15,2013-01-19 17:07:00,
2013-01-19 11:16:00,56.1,45.3,30.33,SSE,155,11.0,13.0,67,0.00,,,0.00,Wunderground v.1.15,2013-01-19 17:16:00,
2013-01-19 11:26:00,56.4,45.2,30.33,South,185,11.0,13.0,66,0.00,,,0.00,Wunderground v.1.15,2013-01-19 17:26:00,
2013-01-19 11:37:00,57.2,44.7,30.32,SSE,155,11.0,11.0,63,0.00,,,0.00,Wunderground v.1.15,2013-01-19 17:37:00,
2013-01-19 11:46:00,58.8,46.2,30.30,SSE,157,10.0,13.0,63,0.00,,,0.00,Wunderground v.1.15,2013-01-19 17:46:00,
2013-01-19 12:07:00,59.4,44.6,30.29,South,179,12.0,16.0,58,0.00,,,0.00,Wunderground v.1.15,2013-01-19 18:07:00,
2013-01-19 12:37:00,60.4,43.7,30.26,SSE,160,11.0,12.0,54,0.00,,,0.00,Wunderground v.1.15,2013-01-19 18:37:00,
2013-01-19 12:46:00,61.2,43.4,30.25,South,190,11.0,13.0,52,0.00,,,0.00,Wunderground v.1.15,2013-01-19 18:46:00,
2013-01-19 12:56:00,61.5,43.2,30.25,South,175,12.0,12.0,51,0.00,,,0.00,Wunderground v.1.15,2013-01-19 18:56:00,
2013-01-19 13:37:00,62.0,42.6,30.22,South,173,11.0,11.0,49,0.00,,,0.00,Wunderground v.1.15,2013-01-19 19:37:00,
2013-01-19 13:47:00,62.5,43.1,30.21,SE,146,12.0,13.0,49,0.00,,,0.00,Wunderground v.1.15,2013-01-19 19:47:00,
2013-01-19 13:56:00,63.3,43.3,30.21,South,182,10.0,10.0,48,0.00,,,0.00,Wunderground v.1.15,2013-01-19 19:56:00,
2013-01-19 14:16:00,63.3,43.8,30.20,South,177,8.0,9.0,49,0.00,,,0.00,Wunderground v.1.15,2013-01-19 20:16:00,
2013-01-19 14:37:00,64.2,43.5,30.19,South,190,8.0,12.0,47,0.00,,,0.00,Wunderground v.1.15,2013-01-19 20:37:00,
2013-01-19 14:56:00,64.1,44.0,30.19,South,189,9.0,9.0,48,0.00,,,0.00,Wunderground v.1.15,2013-01-19 20:56:00,
2013-01-19 15:07:00,64.9,44.2,30.18,SSE,161,8.0,10.0,47,0.00,,,0.00,Wunderground v.1.15,2013-01-19 21:07:00,
2013-01-19 15:17:00,65.4,42.9,30.18,South,188,8.0,8.0,44,0.00,,,0.00,Wunderground v.1.15,2013-01-19 21:17:00,
2013-01-19 15:46:00,66.0,43.5,30.17,South,178,8.0,8.0,44,0.00,,,0.00,Wunderground v.1.15,2013-01-19 21:46:00,
2013-01-19 15:56:00,66.3,42.5,30.17,South,186,9.0,9.0,42,0.00,,,0.00,Wunderground v.1.15,2013-01-19 21:56:00,
2013-01-19 16:07:00,66.2,41.8,30.17,SE,141,8.0,8.0,41,0.00,,,0.00,Wunderground v.1.15,2013-01-19 22:07:00,
2013-01-19 16:16:00,66.0,42.9,30.17,SSE,163,6.0,8.0,43,0.00,,,0.00,Wunderground v.1.15,2013-01-19 22:16:00,
2013-01-19 16:56:00,65.4,42.9,30.18,SSE,153,6.0,6.0,44,0.00,,,0.00,Wunderground v.1.15,2013-01-19 22:56:00,
2013-01-19 17:07:00,65.5,43.0,30.18,SSE,161,5.0,5.0,44,0.00,,,0.00,Wunderground v.1.15,2013-01-19 23:07:00,
2013-01-19 17:17:00,65.4,42.3,30.18,SSE,163,5.0,5.0,43,0.00,,,0.00,Wunderground v.1.15,2013-01-19 23:17:00,
2013-01-19 17:26:00,65.0,42.5,30.18,SSE,168,5.0,5.0,44,0.00,,,0.00,Wunderground v.1.15,2013-01-19 23:26:00,
2013-01-19 17:37:00,64.4,42.6,30.18,SSE,153,4.0,5.0,45,0.00,,,0.00,Wunderground v.1.15,2013-01-19 23:37:00,
2013-01-19 17:46:00,63.7,43.1,30.19,SSE,153,2.0,2.0,47,0.00,,,0.00,Wunderground v.1.15,2013-01-19 23:46:00,
2013-01-19 17:56:00,62.8,42.8,30.19,SSE,153,0.0,0.0,48,0.00,,,0.00,Wunderground v.1.15,2013-01-19 23:56:00,
2013-01-19 18:07:00,61.1,43.3,30.19,SSE,153,0.0,0.0,52,0.00,,,0.00,Wunderground v.1.15,2013-01-20 00:07:00,
2013-01-19 18:17:00,59.4,43.7,30.19,SSE,153,0.0,0.0,56,0.00,,,0.00,Wunderground v.1.15,2013-01-20 00:17:00,
2013-01-19 18:26:00,57.7,43.5,30.19,SSE,153,0.0,0.0,59,0.00,,,0.00,Wunderground v.1.15,2013-01-20 00:26:00,
2013-01-19 18:36:00,56.1,43.3,30.19,SSE,153,0.0,0.0,62,0.00,,,0.00,Wunderground v.1.15,2013-01-20 00:36:00,
2013-01-19 18:46:00,54.6,43.1,30.20,SSE,153,0.0,0.0,65,0.00,,,0.00,Wunderground v.1.15,2013-01-20 00:46:00,
2013-01-19 18:56:00,52.8,42.5,30.20,SSE,153,0.0,0.0,68,0.00,,,0.00,Wunderground v.1.15,2013-01-20 00:56:00,
2013-01-19 19:26:00,48.7,41.1,30.22,SSE,153,0.0,0.0,75,0.00,,,0.00,Wunderground v.1.15,2013-01-20 01:26:00,
2013-01-19 20:07:00,45.4,39.3,30.24,SSE,153,0.0,0.0,79,0.00,,,0.00,Wunderground v.1.15,2013-01-20 02:07:00,
2013-01-19 20:17:00,44.8,39.3,30.24,SSE,153,0.0,0.0,81,0.00,,,0.00,Wunderground v.1.15,2013-01-20 02:17:00,
2013-01-19 20:46:00,43.5,38.4,30.24,SSE,153,0.0,0.0,82,0.00,,,0.00,Wunderground v.1.15,2013-01-20 02:46:00,
2013-01-19 20:56:00,43.0,38.2,30.24,SSE,153,0.0,0.0,83,0.00,,,0.00,Wunderground v.1.15,2013-01-20 02:56:00,
2013-01-19 21:07:00,42.5,37.7,30.25,SSE,153,0.0,0.0,83,0.00,,,0.00,Wunderground v.1.15,2013-01-20 03:07:00,
2013-01-19 21:16:00,42.1,37.6,30.25,SSE,153,0.0,0.0,84,0.00,,,0.00,Wunderground v.1.15,2013-01-20 03:16:00,
2013-01-19 21:26:00,41.7,37.2,30.25,SSE,153,0.0,0.0,84,0.00,,,0.00,Wunderground v.1.15,2013-01-20 03:26:00,
2013-01-19 21:37:00,41.0,36.8,30.25,SSE,153,0.0,0.0,85,0.00,,,0.00,Wunderground v.1.15,2013-01-20 03:37:00,
2013-01-19 21:46:00,40.8,36.6,30.26,SSE,153,0.0,0.0,85,0.00,,,0.00,Wunderground v.1.15,2013-01-20 03:46:00,
2013-01-19 21:56:00,40.1,36.0,30.26,SSE,153,0.0,0.0,85,0.00,,,0.00,Wunderground v.1.15,2013-01-20 03:56:00,
2013-01-19 22:07:00,39.8,36.0,30.26,SSE,153,0.0,0.0,86,0.00,,,0.00,Wunderground v.1.15,2013-01-20 04:07:00,
2013-01-19 22:16:00,39.5,35.7,30.26,SSE,153,0.0,0.0,86,0.00,,,0.00,Wunderground v.1.15,2013-01-20 04:16:00,
2013-01-19 22:26:00,39.1,35.3,30.26,SSE,153,0.0,0.0,86,0.00,,,0.00,Wunderground v.1.15,2013-01-20 04:26:00,
2013-01-19 22:37:00,39.0,35.5,30.26,SSE,153,0.0,0.0,87,0.00,,,0.00,Wunderground v.1.15,2013-01-20 04:37:00,
2013-01-19 22:46:00,38.5,35.0,30.26,SSE,153,0.0,0.0,87,0.00,,,0.00,Wunderground v.1.15,2013-01-20 04:46:00,
2013-01-19 22:56:00,38.1,34.6,30.26,SSE,153,0.0,0.0,87,0.00,,,0.00,Wunderground v.1.15,2013-01-20 04:56:00,
2013-01-19 23:07:00,38.0,34.8,30.26,SSE,153,0.0,0.0,88,0.00,,,0.00,Wunderground v.1.15,2013-01-20 05:07:00,
2013-01-19 23:16:00,37.7,34.5,30.26,SSE,153,0.0,0.0,88,0.00,,,0.00,Wunderground v.1.15,2013-01-20 05:16:00,
2013-01-19 23:26:00,37.2,34.0,30.26,SSE,153,0.0,0.0,88,0.00,,,0.00,Wunderground v.1.15,2013-01-20 05:26:00,
2013-01-19 23:37:00,36.8,33.6,30.26,SSE,153,0.0,0.0,88,0.00,,,0.00,Wunderground v.1.15,2013-01-20 05:37:00,
2013-01-19 23:46:00,36.8,33.9,30.26,SSE,153,0.0,0.0,89,0.00,,,0.00,Wunderground v.1.15,2013-01-20 05:46:00,
2013-01-19 23:56:00,36.8,33.9,30.26,SSE,153,0.0,0.0,89,0.00,,,0.00,Wunderground v.1.15,2013-01-20 05:56:00,